createdAt,value
2019-05-25T00:00:35.397Z,10.90
2019-05-25T00:01:11.494Z,10.50
2019-05-25T00:01:47.446Z,11.87
2019-05-25T00:02:23.338Z,11.40
2019-05-25T00:02:59.210Z,11.50
2019-05-25T00:03:35.191Z,10.83
2019-05-25T00:04:11.123Z,10.90
2019-05-25T00:04:47.019Z,11.47
2019-05-25T00:05:22.891Z,11.90
2019-05-25T00:05:58.855Z,12.27
2019-05-25T00:06:34.742Z,12.27
2019-05-25T00:07:10.625Z,11.80
2019-05-25T00:07:46.531Z,11.70
2019-05-25T00:08:24.729Z,12.17
2019-05-25T00:09:00.589Z,11.90
2019-05-25T00:09:36.433Z,11.50
2019-05-25T00:10:12.374Z,12.83
2019-05-25T00:10:48.376Z,11.60
2019-05-25T00:11:24.278Z,12.20
2019-05-25T00:12:00.138Z,11.70
2019-05-25T00:12:36.041Z,11.80
2019-05-25T00:13:11.956Z,12.13
2019-05-25T00:13:47.843Z,11.23
2019-05-25T00:14:23.744Z,10.80
2019-05-25T00:14:59.628Z,10.83
2019-05-25T00:15:35.493Z,10.50
2019-05-25T00:16:11.365Z,11.53
2019-05-25T00:16:47.253Z,11.40
2019-05-25T00:17:25.753Z,10.33
2019-05-25T00:18:01.720Z,10.30
2019-05-25T00:18:37.617Z,10.70
2019-05-25T00:19:13.525Z,11.00
2019-05-25T00:19:49.435Z,10.90
2019-05-25T00:20:25.298Z,10.07
2019-05-25T00:21:01.292Z,10.67
2019-05-25T00:21:37.250Z,11.37
2019-05-25T00:22:13.158Z,10.50
2019-05-25T00:22:49.158Z,10.10
2019-05-25T00:23:25.075Z,10.33
2019-05-25T00:24:11.613Z,10.50
2019-05-25T00:24:38.658Z,11.23
2019-05-25T00:25:14.671Z,10.60
2019-05-25T00:25:50.567Z,10.00
2019-05-25T00:26:26.407Z,10.67
2019-05-25T00:27:02.334Z,9.90
2019-05-25T00:27:38.191Z,10.87
2019-05-25T00:28:14.088Z,10.67
2019-05-25T00:28:50.050Z,11.20
2019-05-25T00:29:25.970Z,10.10
2019-05-25T00:30:02.032Z,10.10
2019-05-25T00:30:38.071Z,10.40
2019-05-25T00:31:14.210Z,9.73
2019-05-25T00:31:50.092Z,11.40
2019-05-25T00:32:26.057Z,11.00
2019-05-25T00:33:01.994Z,11.63
2019-05-25T00:33:39.518Z,11.10
2019-05-25T00:34:15.471Z,10.30
2019-05-25T00:34:51.334Z,11.27
2019-05-25T00:35:27.215Z,11.00
2019-05-25T00:36:03.125Z,10.87
2019-05-25T00:36:39.038Z,11.27
2019-05-25T00:37:16.022Z,11.00
2019-05-25T00:37:51.959Z,10.73
2019-05-25T00:38:27.806Z,11.23
2019-05-25T00:39:04.751Z,10.80
2019-05-25T00:39:40.700Z,11.37
2019-05-25T00:40:16.727Z,11.83
2019-05-25T00:40:52.687Z,10.83
2019-05-25T00:41:28.553Z,12.10
2019-05-25T00:42:04.401Z,10.30
2019-05-25T00:42:40.317Z,10.40
2019-05-25T00:43:16.168Z,11.30
2019-05-25T00:43:51.993Z,11.00
2019-05-25T00:44:27.852Z,10.60
2019-05-25T00:45:05.011Z,11.37
2019-05-25T00:45:40.902Z,11.20
2019-05-25T00:46:18.327Z,9.90
2019-05-25T00:46:54.536Z,10.63
2019-05-25T00:47:30.438Z,9.70
2019-05-25T00:48:06.592Z,9.60
2019-05-25T00:48:42.487Z,9.37
2019-05-25T00:49:21.145Z,9.67
2019-05-25T00:49:57.684Z,10.10
2019-05-25T00:50:33.532Z,10.03
2019-05-25T00:51:09.455Z,10.90
2019-05-25T00:51:45.333Z,10.40
2019-05-25T00:52:21.335Z,10.40
2019-05-25T00:52:57.236Z,10.53
2019-05-25T00:53:33.354Z,10.90
2019-05-25T00:54:09.286Z,9.93
2019-05-25T00:54:45.282Z,10.57
2019-05-25T00:55:21.664Z,10.27
2019-05-25T00:55:59.067Z,11.03
2019-05-25T00:56:34.962Z,11.00
2019-05-25T00:57:10.824Z,11.43
2019-05-25T00:57:46.719Z,11.60
2019-05-25T00:58:22.645Z,11.23
2019-05-25T00:58:58.553Z,11.40
2019-05-25T00:59:34.399Z,11.67
2019-05-25T01:00:10.325Z,10.87
2019-05-25T01:00:46.183Z,11.67
2019-05-25T01:01:24.474Z,10.77
2019-05-25T01:01:59.700Z,11.60
2019-05-25T01:02:35.772Z,11.43
2019-05-25T01:03:11.779Z,10.90
2019-05-25T01:03:47.631Z,11.50
2019-05-25T01:04:23.602Z,11.53
2019-05-25T01:04:59.509Z,11.20
2019-05-25T01:05:35.548Z,11.57
2019-05-25T01:06:12.959Z,12.30
2019-05-25T01:06:49.117Z,11.83
2019-05-25T01:07:25.065Z,11.30
2019-05-25T01:08:01.154Z,11.83
2019-05-25T01:08:37.082Z,11.10
2019-05-25T01:09:13.072Z,11.53
2019-05-25T01:09:48.931Z,11.07
2019-05-25T01:10:24.998Z,11.63
2019-05-25T01:11:00.987Z,11.83
2019-05-25T01:11:38.351Z,11.87
2019-05-25T01:12:14.238Z,11.30
2019-05-25T01:12:50.266Z,11.27
2019-05-25T01:13:26.139Z,10.60
2019-05-25T01:14:02.046Z,12.23
2019-05-25T01:14:37.884Z,11.60
2019-05-25T01:15:14.519Z,11.10
2019-05-25T01:15:50.397Z,11.50
2019-05-25T01:16:26.319Z,11.83
2019-05-25T01:17:03.865Z,11.00
2019-05-25T01:17:39.825Z,11.77
2019-05-25T01:18:15.716Z,10.80
2019-05-25T01:18:51.620Z,10.83
2019-05-25T01:19:27.585Z,11.10
2019-05-25T01:20:03.587Z,11.00
2019-05-25T01:20:42.339Z,11.30
2019-05-25T01:21:18.236Z,11.43
2019-05-25T01:21:54.128Z,11.60
2019-05-25T01:22:30.053Z,11.50
2019-05-25T01:23:06.040Z,11.53
2019-05-25T01:23:41.919Z,12.27
2019-05-25T01:24:17.769Z,10.23
2019-05-25T01:24:53.651Z,10.73
2019-05-25T01:25:31.131Z,11.20
2019-05-25T01:26:07.035Z,10.87
2019-05-25T01:26:42.961Z,10.57
2019-05-25T01:27:18.790Z,11.37
2019-05-25T01:27:54.633Z,11.30
2019-05-25T01:28:30.708Z,11.17
2019-05-25T01:29:06.569Z,11.47
2019-05-25T01:29:43.118Z,10.73
2019-05-25T01:30:19.194Z,11.73
2019-05-25T01:30:55.182Z,11.97
2019-05-25T01:31:31.023Z,12.27
2019-05-25T01:32:06.899Z,11.93
2019-05-25T01:32:42.796Z,10.10
2019-05-25T01:33:18.679Z,11.53
2019-05-25T01:33:54.559Z,10.30
2019-05-25T01:34:30.472Z,11.70
2019-05-25T01:35:06.409Z,12.30
2019-05-25T01:35:42.421Z,13.23
2019-05-25T01:36:18.422Z,11.47
2019-05-25T01:36:54.387Z,11.90
2019-05-25T01:37:30.465Z,12.20
2019-05-25T01:38:06.447Z,11.30
2019-05-25T01:38:42.347Z,12.53
2019-05-25T01:39:18.270Z,12.80
2019-05-25T01:39:54.129Z,12.77
2019-05-25T01:40:30.067Z,12.93
2019-05-25T01:41:05.946Z,12.20
2019-05-25T01:41:41.850Z,12.53
2019-05-25T01:42:17.785Z,13.10
2019-05-25T01:42:53.648Z,13.30
2019-05-25T01:43:29.581Z,12.53
2019-05-25T01:44:05.655Z,12.10
2019-05-25T01:44:41.552Z,12.47
2019-05-25T01:45:17.409Z,12.30
2019-05-25T01:45:53.426Z,12.03
2019-05-25T01:46:29.380Z,13.70
2019-05-25T01:47:07.002Z,11.70
2019-05-25T01:47:42.911Z,12.50
2019-05-25T01:48:18.846Z,11.13
2019-05-25T01:48:54.716Z,12.20
2019-05-25T01:49:30.560Z,12.57
2019-05-25T01:50:07.077Z,11.80
2019-05-25T01:50:42.960Z,12.43
2019-05-25T01:51:18.870Z,11.80
2019-05-25T01:51:54.781Z,11.63
2019-05-25T01:52:30.758Z,13.33
2019-05-25T01:53:06.733Z,12.40
2019-05-25T01:53:42.704Z,12.00
2019-05-25T01:54:18.740Z,12.47
2019-05-25T01:54:59.803Z,11.83
2019-05-25T01:55:32.418Z,11.23
2019-05-25T01:56:08.348Z,13.07
2019-05-25T01:56:45.783Z,12.17
2019-05-25T01:57:21.862Z,12.90
2019-05-25T01:57:57.735Z,12.67
2019-05-25T01:58:33.600Z,12.20
2019-05-25T01:59:09.477Z,12.60
2019-05-25T01:59:45.352Z,12.53
2019-05-25T02:00:21.643Z,12.57
2019-05-25T02:00:57.549Z,12.60
2019-05-25T02:01:33.493Z,11.33
2019-05-25T02:02:09.428Z,11.50
2019-05-25T02:02:45.427Z,10.83
2019-05-25T02:03:21.503Z,11.50
2019-05-25T02:03:57.439Z,12.53
2019-05-25T02:04:33.312Z,11.13
2019-05-25T02:05:09.538Z,12.17
2019-05-25T02:05:45.418Z,11.07
2019-05-25T02:06:21.368Z,12.03
2019-05-25T02:06:57.423Z,11.43
2019-05-25T02:07:33.364Z,11.90
2019-05-25T02:08:09.333Z,11.43
2019-05-25T02:08:45.283Z,11.77
2019-05-25T02:09:21.152Z,11.50
2019-05-25T02:09:57.088Z,10.97
2019-05-25T02:10:32.998Z,11.40
2019-05-25T02:11:08.868Z,10.73
2019-05-25T02:11:44.760Z,12.03
2019-05-25T02:12:20.659Z,11.23
2019-05-25T02:12:56.587Z,10.93
2019-05-25T02:13:32.485Z,12.30
2019-05-25T02:14:08.397Z,11.43
2019-05-25T02:14:44.339Z,11.80
2019-05-25T02:15:20.289Z,11.43
2019-05-25T02:15:56.203Z,11.47
2019-05-25T02:16:32.886Z,11.23
2019-05-25T02:17:08.751Z,10.80
2019-05-25T02:17:45.165Z,10.50
2019-05-25T02:18:21.054Z,11.20
2019-05-25T02:18:56.974Z,11.33
2019-05-25T02:19:32.859Z,11.10
2019-05-25T02:20:09.084Z,11.20
2019-05-25T02:20:45.058Z,10.87
2019-05-25T02:21:20.906Z,10.87
2019-05-25T02:21:56.890Z,10.60
2019-05-25T02:22:32.835Z,10.37
2019-05-25T02:23:08.780Z,10.27
2019-05-25T02:23:44.814Z,10.60
2019-05-25T02:24:20.729Z,10.23
2019-05-25T02:24:56.598Z,11.10
2019-05-25T02:25:32.530Z,10.80
2019-05-25T02:26:08.514Z,11.27
2019-05-25T02:26:44.434Z,10.87
2019-05-25T02:27:20.513Z,10.30
2019-05-25T02:27:56.400Z,8.80
2019-05-25T02:28:32.316Z,9.50
2019-05-25T02:29:08.173Z,10.60
2019-05-25T02:29:44.063Z,9.73
2019-05-25T02:30:21.650Z,10.10
2019-05-25T02:30:57.635Z,9.70
2019-05-25T02:31:33.476Z,9.93
2019-05-25T02:32:09.274Z,10.10
2019-05-25T02:32:45.142Z,10.30
2019-05-25T02:33:21.047Z,9.80
2019-05-25T02:33:56.983Z,9.10
2019-05-25T02:34:32.864Z,8.90
2019-05-25T02:35:11.854Z,10.17
2019-05-25T02:35:47.735Z,10.40
2019-05-25T02:36:23.629Z,8.40
2019-05-25T02:36:59.504Z,9.73
2019-05-25T02:37:35.359Z,8.03
2019-05-25T02:38:11.285Z,8.30
2019-05-25T02:38:47.305Z,8.50
2019-05-25T02:39:23.335Z,8.70
2019-05-25T02:39:59.255Z,8.53
2019-05-25T02:40:35.122Z,8.83
2019-05-25T02:41:11.043Z,8.60
2019-05-25T02:41:46.894Z,8.70
2019-05-25T02:42:22.801Z,9.20
2019-05-25T02:42:58.685Z,8.50
2019-05-25T02:43:34.583Z,8.37
2019-05-25T02:44:10.471Z,8.13
2019-05-25T02:44:46.337Z,8.23
2019-05-25T02:45:22.952Z,8.07
2019-05-25T02:45:58.867Z,9.80
2019-05-25T02:46:34.762Z,7.97
2019-05-25T02:47:10.758Z,7.10
2019-05-25T02:47:46.649Z,7.80
2019-05-25T02:48:22.537Z,8.93
2019-05-25T02:48:58.455Z,8.43
2019-05-25T02:49:34.453Z,7.97
2019-05-25T02:50:10.628Z,7.13
2019-05-25T02:50:46.490Z,8.23
2019-05-25T02:51:22.505Z,7.03
2019-05-25T02:51:58.494Z,7.37
2019-05-25T02:52:35.021Z,8.13
2019-05-25T02:53:10.903Z,8.10
2019-05-25T02:53:46.828Z,7.57
2019-05-25T02:54:22.786Z,8.30
2019-05-25T02:54:58.782Z,7.60
2019-05-25T02:55:35.375Z,7.13
2019-05-25T02:56:11.386Z,7.13
2019-05-25T02:56:47.287Z,6.87
2019-05-25T02:57:23.161Z,7.50
2019-05-25T02:57:59.071Z,7.30
2019-05-25T02:58:34.942Z,7.37
2019-05-25T02:59:10.798Z,6.93
2019-05-25T02:59:46.823Z,6.70
2019-05-25T03:00:32.404Z,6.20
2019-05-25T03:01:08.591Z,6.70
2019-05-25T03:01:44.518Z,6.50
2019-05-25T03:02:20.437Z,6.07
2019-05-25T03:02:56.617Z,6.17
2019-05-25T03:03:32.567Z,7.20
2019-05-25T03:04:08.578Z,6.87
2019-05-25T03:04:44.456Z,7.00
2019-05-25T03:05:20.347Z,6.40
2019-05-25T03:05:57.304Z,6.10
2019-05-25T03:06:33.692Z,6.97
2019-05-25T03:07:09.732Z,6.50
2019-05-25T03:07:46.660Z,6.47
2019-05-25T03:08:22.527Z,5.93
2019-05-25T03:08:59.414Z,6.40
2019-05-25T03:09:36.048Z,7.43
2019-05-25T03:10:11.898Z,5.90
2019-05-25T03:10:47.877Z,5.80
2019-05-25T03:11:23.881Z,6.50
2019-05-25T03:12:01.383Z,6.00
2019-05-25T03:12:37.230Z,5.80
2019-05-25T03:13:13.247Z,5.90
2019-05-25T03:13:49.189Z,5.80
2019-05-25T03:14:25.071Z,5.97
2019-05-25T03:15:01.067Z,5.43
2019-05-25T03:15:37.011Z,5.27
2019-05-25T03:16:12.874Z,6.00
2019-05-25T03:16:48.827Z,5.53
2019-05-25T03:17:26.259Z,5.57
2019-05-25T03:18:02.200Z,5.30
2019-05-25T03:18:38.126Z,4.80
2019-05-25T03:19:14.006Z,5.07
2019-05-25T03:19:49.903Z,5.03
2019-05-25T03:20:25.743Z,5.60
2019-05-25T03:21:01.664Z,5.17
2019-05-25T03:21:37.538Z,5.57
2019-05-25T03:22:13.429Z,5.57
2019-05-25T03:22:49.425Z,5.27
2019-05-25T03:23:25.320Z,4.60
2019-05-25T03:24:01.197Z,5.33
2019-05-25T03:24:37.034Z,4.80
2019-05-25T03:25:13.033Z,5.80
2019-05-25T03:25:50.243Z,4.93
2019-05-25T03:26:26.399Z,4.43
2019-05-25T03:27:02.319Z,4.90
2019-05-25T03:27:38.349Z,5.20
2019-05-25T03:28:14.211Z,4.90
2019-05-25T03:28:50.047Z,4.80
2019-05-25T03:29:26.660Z,4.80
2019-05-25T03:30:02.593Z,4.83
2019-05-25T03:30:38.790Z,5.13
2019-05-25T03:31:14.736Z,4.90
2019-05-25T03:31:50.605Z,4.47
2019-05-25T03:32:26.472Z,4.20
2019-05-25T03:33:02.362Z,5.33
2019-05-25T03:33:38.245Z,6.90
2019-05-25T03:34:14.143Z,7.60
2019-05-25T03:34:50.040Z,8.07
2019-05-25T03:35:25.906Z,6.60
2019-05-25T03:36:01.831Z,7.20
2019-05-25T03:36:37.686Z,7.20
2019-05-25T03:37:13.601Z,8.00
2019-05-25T03:37:49.592Z,7.67
2019-05-25T03:38:25.416Z,7.60
2019-05-25T03:39:01.265Z,7.57
2019-05-25T03:39:37.143Z,7.93
2019-05-25T03:40:13.189Z,8.00
2019-05-25T03:40:49.028Z,7.77
2019-05-25T03:41:26.425Z,8.00
2019-05-25T03:42:02.323Z,6.97
2019-05-25T03:42:38.238Z,6.23
2019-05-25T03:43:14.245Z,6.67
2019-05-25T03:43:50.125Z,7.57
2019-05-25T03:44:25.974Z,6.97
2019-05-25T03:45:01.943Z,7.33
2019-05-25T03:45:37.937Z,8.30
2019-05-25T03:46:13.937Z,8.10
2019-05-25T03:46:49.772Z,7.23
2019-05-25T03:47:25.643Z,6.83
2019-05-25T03:48:01.537Z,7.73
2019-05-25T03:48:37.448Z,7.70
2019-05-25T03:49:13.317Z,7.97
2019-05-25T03:49:49.197Z,8.30
2019-05-25T03:50:25.080Z,8.00
2019-05-25T03:51:01.080Z,7.90
2019-05-25T03:51:37.003Z,7.00
2019-05-25T03:52:12.869Z,7.00
2019-05-25T03:52:48.861Z,7.23
2019-05-25T03:53:24.757Z,8.67
2019-05-25T03:54:00.673Z,7.73
2019-05-25T03:54:36.521Z,8.23
2019-05-25T03:55:12.420Z,7.97
2019-05-25T03:55:48.287Z,8.60
2019-05-25T03:56:24.284Z,7.87
2019-05-25T03:57:00.198Z,7.17
2019-05-25T03:57:36.110Z,8.83
2019-05-25T03:58:11.969Z,8.10
2019-05-25T03:58:47.812Z,8.60
2019-05-25T03:59:23.952Z,8.50
2019-05-25T03:59:59.808Z,8.80
2019-05-25T04:00:37.040Z,8.50
2019-05-25T04:01:13.099Z,8.10
2019-05-25T04:01:48.974Z,8.03
2019-05-25T04:02:24.872Z,7.03
2019-05-25T04:03:00.751Z,7.90
2019-05-25T04:03:36.642Z,8.07
2019-05-25T04:04:12.514Z,7.67
2019-05-25T04:04:48.399Z,8.27
2019-05-25T04:05:24.216Z,8.27
2019-05-25T04:06:00.082Z,7.67
2019-05-25T04:06:35.953Z,7.43
2019-05-25T04:07:11.806Z,7.77
2019-05-25T04:07:47.926Z,7.43
2019-05-25T04:08:23.855Z,6.90
2019-05-25T04:08:59.766Z,7.83
2019-05-25T04:09:35.606Z,7.03
2019-05-25T04:10:11.463Z,7.93
2019-05-25T04:10:48.632Z,8.07
2019-05-25T04:11:24.475Z,8.33
2019-05-25T04:12:00.402Z,7.70
2019-05-25T04:12:37.798Z,8.70
2019-05-25T04:13:13.823Z,7.53
2019-05-25T04:13:49.797Z,7.70
2019-05-25T04:14:25.696Z,8.80
2019-05-25T04:15:01.574Z,8.70
2019-05-25T04:15:37.497Z,8.43
2019-05-25T04:16:13.368Z,7.00
2019-05-25T04:16:49.267Z,10.13
2019-05-25T04:17:25.258Z,8.33
2019-05-25T04:18:01.121Z,9.30
2019-05-25T04:18:36.968Z,10.20
2019-05-25T04:19:12.876Z,10.70
2019-05-25T04:19:49.320Z,9.60
2019-05-25T04:20:25.225Z,11.10
2019-05-25T04:21:01.153Z,10.87
2019-05-25T04:21:38.313Z,12.20
2019-05-25T04:22:14.178Z,10.23
2019-05-25T04:22:50.111Z,11.40
2019-05-25T04:23:26.109Z,11.43
2019-05-25T04:24:02.029Z,11.67
2019-05-25T04:24:37.987Z,10.67
2019-05-25T04:25:13.927Z,10.97
2019-05-25T04:25:49.807Z,11.40
2019-05-25T04:26:27.589Z,11.17
2019-05-25T04:27:03.349Z,11.77
2019-05-25T04:27:39.323Z,11.87
2019-05-25T04:28:15.376Z,11.33
2019-05-25T04:28:51.909Z,10.90
2019-05-25T04:29:27.872Z,11.10
2019-05-25T04:30:03.782Z,10.90
2019-05-25T04:30:39.637Z,10.70
2019-05-25T04:31:15.495Z,10.40
2019-05-25T04:31:51.451Z,11.20
2019-05-25T04:32:27.327Z,9.77
2019-05-25T04:33:03.208Z,10.50
2019-05-25T04:33:39.028Z,10.30
2019-05-25T04:34:15.046Z,9.37
2019-05-25T04:34:50.980Z,9.10
2019-05-25T04:35:26.960Z,10.03
2019-05-25T04:36:02.811Z,9.80
2019-05-25T04:36:38.639Z,9.60
2019-05-25T04:37:16.158Z,10.60
2019-05-25T04:37:51.970Z,9.70
2019-05-25T04:38:27.846Z,10.57
2019-05-25T04:39:05.364Z,11.33
2019-05-25T04:39:41.820Z,10.30
2019-05-25T04:40:17.704Z,9.43
2019-05-25T04:40:53.656Z,10.20
2019-05-25T04:41:29.547Z,10.60
2019-05-25T04:42:05.373Z,9.03
2019-05-25T04:42:41.283Z,9.70
2019-05-25T04:43:17.156Z,9.57
2019-05-25T04:43:53.429Z,9.50
2019-05-25T04:44:29.391Z,8.50
2019-05-25T04:45:05.529Z,7.90
2019-05-25T04:45:41.410Z,7.93
2019-05-25T04:46:17.292Z,8.57
2019-05-25T04:46:53.944Z,9.00
2019-05-25T04:47:32.004Z,7.87
2019-05-25T04:48:08.000Z,9.00
2019-05-25T04:48:43.887Z,8.67
2019-05-25T04:49:19.770Z,9.13
2019-05-25T04:49:55.642Z,9.50
2019-05-25T04:50:31.548Z,8.73
2019-05-25T04:51:07.490Z,9.60
2019-05-25T04:51:44.064Z,8.73
2019-05-25T04:52:21.453Z,10.23
2019-05-25T04:52:58.015Z,8.90
2019-05-25T04:53:34.419Z,8.63
2019-05-25T04:54:10.839Z,8.77
2019-05-25T04:54:47.185Z,8.63
2019-05-25T04:55:23.151Z,8.40
2019-05-25T04:55:59.144Z,8.23
2019-05-25T04:56:44.303Z,7.90
2019-05-25T04:57:21.655Z,8.17
2019-05-25T04:57:57.568Z,8.17
2019-05-25T04:58:33.495Z,7.87
2019-05-25T04:59:09.402Z,8.67
2019-05-25T04:59:46.063Z,8.40
2019-05-25T05:00:21.929Z,8.10
2019-05-25T05:00:57.902Z,8.30
2019-05-25T05:01:33.839Z,7.33
2019-05-25T05:02:09.813Z,6.90
2019-05-25T05:02:45.703Z,7.17
2019-05-25T05:03:21.676Z,6.90
2019-05-25T05:03:57.709Z,7.10
2019-05-25T05:04:33.570Z,7.57
2019-05-25T05:05:09.447Z,6.90
2019-05-25T05:05:45.309Z,6.60
2019-05-25T05:06:21.164Z,7.27
2019-05-25T05:06:57.080Z,6.47
2019-05-25T05:07:32.958Z,5.90
2019-05-25T05:08:08.859Z,5.87
2019-05-25T05:08:44.765Z,5.80
2019-05-25T05:09:20.617Z,5.60
2019-05-25T05:10:02.774Z,6.43
2019-05-25T05:10:34.222Z,6.10
2019-05-25T05:11:10.111Z,6.00
2019-05-25T05:11:45.976Z,6.17
2019-05-25T05:12:21.839Z,5.90
2019-05-25T05:12:57.706Z,6.27
2019-05-25T05:13:33.623Z,6.37
2019-05-25T05:14:09.504Z,5.83
2019-05-25T05:14:45.343Z,7.30
2019-05-25T05:15:21.754Z,6.60
2019-05-25T05:15:57.723Z,6.80
2019-05-25T05:16:33.611Z,7.20
2019-05-25T05:17:09.480Z,7.60
2019-05-25T05:17:45.488Z,6.67
2019-05-25T05:18:21.341Z,7.30
2019-05-25T05:18:57.278Z,7.10
2019-05-25T05:19:33.131Z,7.00
2019-05-25T05:20:11.093Z,5.87
2019-05-25T05:20:46.991Z,6.10
2019-05-25T05:21:22.859Z,6.00
2019-05-25T05:21:58.844Z,5.77
2019-05-25T05:22:34.820Z,5.70
2019-05-25T05:23:10.790Z,5.70
2019-05-25T05:23:46.670Z,6.30
2019-05-25T05:24:22.546Z,5.70
2019-05-25T05:24:58.438Z,5.87
2019-05-25T05:25:34.267Z,5.63
2019-05-25T05:26:10.122Z,5.50
2019-05-25T05:26:55.396Z,6.40
2019-05-25T05:27:23.640Z,6.20
2019-05-25T05:27:59.567Z,6.17
2019-05-25T05:28:35.398Z,6.53
2019-05-25T05:29:11.421Z,6.30
2019-05-25T05:29:47.315Z,6.60
2019-05-25T05:30:32.675Z,6.40
2019-05-25T05:31:22.747Z,6.57
2019-05-25T05:31:46.389Z,7.50
2019-05-25T05:32:27.448Z,8.00
2019-05-25T05:33:00.137Z,7.37
2019-05-25T05:33:36.144Z,7.50
2019-05-25T05:34:13.350Z,6.40
2019-05-25T05:34:49.234Z,6.50
2019-05-25T05:35:25.096Z,6.60
2019-05-25T05:36:01.758Z,7.23
2019-05-25T05:36:39.111Z,7.50
2019-05-25T05:37:14.998Z,7.30
2019-05-25T05:37:50.929Z,6.60
2019-05-25T05:38:27.117Z,7.13
2019-05-25T05:39:06.250Z,7.20
2019-05-25T05:39:42.578Z,7.47
2019-05-25T05:40:18.544Z,7.20
2019-05-25T05:40:54.846Z,7.40
2019-05-25T05:41:32.314Z,7.33
2019-05-25T05:42:09.678Z,7.10
2019-05-25T05:42:47.042Z,7.30
2019-05-25T05:43:23.189Z,6.60
2019-05-25T05:43:59.153Z,7.30
2019-05-25T05:44:36.272Z,6.40
2019-05-25T05:45:12.449Z,5.80
2019-05-25T05:45:49.601Z,6.83
2019-05-25T05:46:25.587Z,6.50
2019-05-25T05:47:01.761Z,7.47
2019-05-25T05:47:38.069Z,7.23
2019-05-25T05:48:14.700Z,7.90
2019-05-25T05:48:53.029Z,7.17
2019-05-25T05:49:30.533Z,7.50
2019-05-25T05:50:08.266Z,7.27
2019-05-25T05:50:44.135Z,7.70
2019-05-25T05:51:21.973Z,7.10
2019-05-25T05:52:00.837Z,7.40
2019-05-25T05:52:39.302Z,7.80
2019-05-25T05:53:15.295Z,7.17
2019-05-25T05:53:54.682Z,7.50
2019-05-25T05:54:30.961Z,7.07
2019-05-25T05:55:07.169Z,7.43
2019-05-25T05:55:43.097Z,7.93
2019-05-25T05:56:18.951Z,7.67
2019-05-25T05:57:10.729Z,8.20
2019-05-25T05:57:32.465Z,7.50
2019-05-25T05:58:08.344Z,7.50
2019-05-25T05:58:44.293Z,7.80
2019-05-25T05:59:20.164Z,7.33
2019-05-25T05:59:56.050Z,6.07
2019-05-25T06:00:32.115Z,7.03
2019-05-25T06:01:08.080Z,7.03
2019-05-25T06:01:43.962Z,8.20
2019-05-25T06:02:19.872Z,7.27
2019-05-25T06:02:55.748Z,8.43
2019-05-25T06:03:31.645Z,7.33
2019-05-25T06:04:07.597Z,8.37
2019-05-25T06:04:43.673Z,7.77
2019-05-25T06:05:19.556Z,7.57
2019-05-25T06:05:55.454Z,7.50
2019-05-25T06:06:31.356Z,8.47
2019-05-25T06:07:07.265Z,7.53
2019-05-25T06:07:43.154Z,8.03
2019-05-25T06:08:19.062Z,7.73
2019-05-25T06:08:55.038Z,8.50
2019-05-25T06:09:30.948Z,8.70
2019-05-25T06:10:08.326Z,8.40
2019-05-25T06:10:44.154Z,9.00
2019-05-25T06:11:20.063Z,8.13
2019-05-25T06:11:55.989Z,8.60
2019-05-25T06:12:32.090Z,8.40
2019-05-25T06:13:07.940Z,8.03
2019-05-25T06:13:43.896Z,8.50
2019-05-25T06:14:19.819Z,8.50
2019-05-25T06:14:55.700Z,8.67
2019-05-25T06:15:31.666Z,8.77
2019-05-25T06:16:09.124Z,8.00
2019-05-25T06:16:45.020Z,8.00
2019-05-25T06:17:20.881Z,8.90
2019-05-25T06:17:56.716Z,8.33
2019-05-25T06:18:32.594Z,8.63
2019-05-25T06:19:08.427Z,8.70
2019-05-25T06:19:44.267Z,9.27
2019-05-25T06:20:20.164Z,8.50
2019-05-25T06:20:56.023Z,8.70
2019-05-25T06:21:31.928Z,8.97
2019-05-25T06:22:07.761Z,8.30
2019-05-25T06:22:43.633Z,8.57
2019-05-25T06:23:19.496Z,9.40
2019-05-25T06:23:55.414Z,9.23
2019-05-25T06:24:31.875Z,8.87
2019-05-25T06:25:08.342Z,8.50
2019-05-25T06:25:44.344Z,9.10
2019-05-25T06:26:20.236Z,8.40
2019-05-25T06:26:56.162Z,9.77
2019-05-25T06:27:32.012Z,8.17
2019-05-25T06:28:07.867Z,8.77
2019-05-25T06:28:43.707Z,8.87
2019-05-25T06:29:21.088Z,8.80
2019-05-25T06:29:56.988Z,9.40
2019-05-25T06:30:32.960Z,9.53
2019-05-25T06:31:08.806Z,9.97
2019-05-25T06:31:44.758Z,9.40
2019-05-25T06:32:20.630Z,9.23
2019-05-25T06:32:56.505Z,9.00
2019-05-25T06:33:32.421Z,9.47
2019-05-25T06:34:08.518Z,9.70
2019-05-25T06:34:44.433Z,9.00
2019-05-25T06:35:20.506Z,10.10
2019-05-25T06:35:56.529Z,9.77
2019-05-25T06:36:32.517Z,10.57
2019-05-25T06:37:08.415Z,10.27
2019-05-25T06:37:44.299Z,9.90
2019-05-25T06:38:20.339Z,11.00
2019-05-25T06:38:56.315Z,10.00
2019-05-25T06:39:32.217Z,9.57
2019-05-25T06:40:08.482Z,8.70
2019-05-25T06:40:44.923Z,9.43
2019-05-25T06:41:20.843Z,10.00
2019-05-25T06:41:56.857Z,8.77
2019-05-25T06:42:32.739Z,8.87
2019-05-25T06:43:08.694Z,9.50
2019-05-25T06:43:44.588Z,9.80
2019-05-25T06:44:20.464Z,8.17
2019-05-25T06:44:56.333Z,8.80
2019-05-25T06:45:32.687Z,8.73
2019-05-25T06:46:08.707Z,9.90
2019-05-25T06:46:44.618Z,8.17
2019-05-25T06:47:20.473Z,8.13
2019-05-25T06:47:57.373Z,9.23
2019-05-25T06:48:34.135Z,9.00
2019-05-25T06:49:10.875Z,9.50
2019-05-25T06:49:47.224Z,8.10
2019-05-25T06:50:23.754Z,9.87
2019-05-25T06:51:00.329Z,10.20
2019-05-25T06:51:36.829Z,9.33
2019-05-25T06:52:13.316Z,10.50
2019-05-25T06:52:49.703Z,9.77
2019-05-25T06:53:26.147Z,9.87
2019-05-25T06:54:02.911Z,9.60
2019-05-25T06:54:39.582Z,9.60
2019-05-25T06:55:15.933Z,9.50
2019-05-25T06:55:52.264Z,9.67
2019-05-25T06:56:29.113Z,9.27
2019-05-25T06:57:05.787Z,9.30
2019-05-25T06:57:43.832Z,8.70
2019-05-25T06:58:20.403Z,9.70
2019-05-25T06:58:57.215Z,9.30
2019-05-25T06:59:33.547Z,8.30
2019-05-25T07:00:11.399Z,9.33
2019-05-25T07:00:47.984Z,10.40
2019-05-25T07:01:24.440Z,9.20
2019-05-25T07:02:01.051Z,9.40
2019-05-25T07:02:37.723Z,8.80
2019-05-25T07:03:14.026Z,9.63
2019-05-25T07:03:50.160Z,10.03
2019-05-25T07:04:27.064Z,9.23
2019-05-25T07:05:03.994Z,8.47
2019-05-25T07:05:40.557Z,9.30
2019-05-25T07:06:17.960Z,9.63
2019-05-25T07:06:54.627Z,9.00
2019-05-25T07:07:31.147Z,8.73
2019-05-25T07:08:07.488Z,8.90
2019-05-25T07:08:43.972Z,10.10
2019-05-25T07:09:20.539Z,10.00
2019-05-25T07:09:57.098Z,9.00
2019-05-25T07:10:33.474Z,9.23
2019-05-25T07:11:09.986Z,9.00
2019-05-25T07:11:46.833Z,9.10
2019-05-25T07:12:23.397Z,10.27
2019-05-25T07:12:59.770Z,9.57
2019-05-25T07:13:36.326Z,9.87
2019-05-25T07:14:12.998Z,8.70
2019-05-25T07:14:49.533Z,8.70
2019-05-25T07:15:25.991Z,9.27
2019-05-25T07:16:02.524Z,9.00
2019-05-25T07:16:39.306Z,9.50
2019-05-25T07:17:15.983Z,9.70
2019-05-25T07:17:52.440Z,8.93
2019-05-25T07:18:28.955Z,8.90
2019-05-25T07:19:05.612Z,8.50
2019-05-25T07:19:42.191Z,9.37
2019-05-25T07:20:18.764Z,9.20
2019-05-25T07:20:55.374Z,8.90
2019-05-25T07:21:31.857Z,9.90
2019-05-25T07:22:08.438Z,9.17
2019-05-25T07:22:45.077Z,9.10
2019-05-25T07:23:21.831Z,7.97
2019-05-25T07:23:58.443Z,8.90
2019-05-25T07:24:34.646Z,10.20
2019-05-25T07:25:11.380Z,7.57
2019-05-25T07:25:50.698Z,8.80
2019-05-25T07:26:27.430Z,8.80
2019-05-25T07:27:03.514Z,9.17
2019-05-25T07:27:39.830Z,8.70
2019-05-25T07:28:16.050Z,9.27
2019-05-25T07:28:52.306Z,8.83
2019-05-25T07:29:28.852Z,7.97
2019-05-25T07:30:05.665Z,8.67
2019-05-25T07:30:42.561Z,9.07
2019-05-25T07:31:18.488Z,8.23
2019-05-25T07:31:55.177Z,9.00
2019-05-25T07:32:31.103Z,8.97
2019-05-25T07:33:07.232Z,8.83
2019-05-25T07:33:43.620Z,8.50
2019-05-25T07:34:19.973Z,7.70
2019-05-25T07:34:55.858Z,8.77
2019-05-25T07:35:32.287Z,9.03
2019-05-25T07:36:08.732Z,7.70
2019-05-25T07:36:44.793Z,9.20
2019-05-25T07:37:21.692Z,8.50
2019-05-25T07:37:58.210Z,8.30
2019-05-25T07:38:34.666Z,8.27
2019-05-25T07:39:10.934Z,9.40
2019-05-25T07:39:47.364Z,9.00
2019-05-25T07:40:23.670Z,9.60
2019-05-25T07:40:59.760Z,8.30
2019-05-25T07:41:36.004Z,8.87
2019-05-25T07:42:12.234Z,8.63
2019-05-25T07:42:48.873Z,8.63
2019-05-25T07:43:25.349Z,8.80
2019-05-25T07:44:01.920Z,8.07
2019-05-25T07:44:38.771Z,8.00
2019-05-25T07:45:15.868Z,9.37
2019-05-25T07:45:52.376Z,9.33
2019-05-25T07:46:29.530Z,9.93
2019-05-25T07:47:05.945Z,7.93
2019-05-25T07:47:42.290Z,9.57
2019-05-25T07:48:18.532Z,8.70
2019-05-25T07:48:55.035Z,8.60
2019-05-25T07:49:31.485Z,8.87
2019-05-25T07:50:08.575Z,8.30
2019-05-25T07:50:44.404Z,9.30
2019-05-25T07:51:20.849Z,8.70
2019-05-25T07:51:57.272Z,9.77
2019-05-25T07:52:34.011Z,9.80
2019-05-25T07:53:10.762Z,8.73
2019-05-25T07:53:47.538Z,8.60
2019-05-25T07:54:23.999Z,9.37
2019-05-25T07:55:00.367Z,8.90
2019-05-25T07:55:37.038Z,8.70
2019-05-25T07:56:13.278Z,8.40